Waynesboro, VA

10:19 PM EST on December 18, 2014 (GMT -0500)
Waynesboro West | Change Station
CLOSE
Current Station
Personal Weather Station
Location: Waynesboro, VA
Elevation: 990 ft
Nearby Weather Stations

Elev 990 ft 38.08 °N, 78.92 °W | Updated 8 minutes ago

Overcast
Overcast
34.8 °F
Feels Like 35 °F
N
0.0
Wind Variable Wind from West
Gusts 2.0 mph

Today
High -- | Low -- °F
--% Chance of Precip.
Yesterday
High -- | Low -- °F
Precip. -- in
7:26 AM 4:58 PM
Waning Crescent, 10% visible
Pressure 30.09 in
Visibility 10.0 miles
Clouds Overcast 9000 ft
Windchill 35 °F
Dew Point 26 °F
Humidity 69%
Rainfall 0.00 in
Snow Depth Not available.
UV 0 out of 12
Pollen .30 out of 12
Air Quality Not available.
Flu Activity Not available.
METAR KSHD 190255Z AUTO 00000KT 10SM OVC090 02/M05 A3009 RMK AO2 T00171047

More Conditions Fewer Conditions

Pressure 30.09 in
Visibility 10.0 miles
Clouds Overcast 9000 ft
Windchill 35 °F
Dew Point 26 °F
Humidity 69%
Rainfall 0.00 in
Snow Depth Not available.
UV 0 out of 12
Pollen .30 out of 12
Air Quality Not available.
Flu Activity Not available.
METAR KSHD 190255Z AUTO 00000KT 10SM OVC090 02/M05 A3009 RMK AO2 T00171047

More Conditions Fewer Conditions

10-Day Weather Forecast

Almanac

Astronomy

Dec. 18, 2014 Rise Set
Actual Time
Civil Twilight
Nautical Twilight
Astronomical Twilight
Moon
Length of Visible Light
Length of Day
Tomorrow will be .
, % of the Moon is Illuminated

Today's Extremes

State Highs State Lows

Community

WunderPhotos

Upload Photos

1,778,994 photos uploaded!

WunderBlogs® & News

Nearby

Air Quality

  Air Quality AQ Index Pollutant
Not available.

Snow Depth

Station Depth Elevation

Earthquake Activity

City Distance Mag. Time & Date
Minimum magnitude displayed is 2.5.

Coastal Water Temperatures

Place Temperature

Nearby Weather Stations